Time;durP1;ratioP1;P1;durP2;ratioP2;P2;SDS_P1;SDS_P2;PMS_P1;PMS_P2;Temp;Humidity;BMP_temperature;BMP_pressure;BME280_temperature;BME280_humidity;BME280_pressure;Samples;Min_cycle;Max_cycle;Signal;HPM_P1;HPM_P2
2022/11/27 00:02:25;;;;;;;16.27;3.50;;;;;;;;;;5072005;28;20286;-80
2022/11/27 00:04:53;;;;;;;13.10;3.43;;;;;;;;;;5072005;28;20310;-80
2022/11/27 00:07:20;;;;;;;11.03;3.10;;;;;;;;;;5071601;28;20277;-80
2022/11/27 00:09:47;;;;;;;13.63;3.57;;;;;;;;;;5071526;28;20627;-79
2022/11/27 00:12:14;;;;;;;11.63;3.53;;;;;;;;;;5071974;28;20629;-80
2022/11/27 00:14:43;;;;;;;10.53;3.23;;;;;;;;;;5071067;28;20226;-79
2022/11/27 00:17:13;;;;;;;13.77;3.57;;;;;;;;;;5052179;28;20231;-80
2022/11/27 00:19:41;;;;;;;10.77;3.50;;;;;;;;;;5051933;28;20291;-79
2022/11/27 00:22:08;;;;;;;12.10;3.37;;;;;;;;;;5052171;28;20279;-80
2022/11/27 00:24:35;;;;;;;16.67;3.60;;;;;;;;;;5055722;28;20310;-80
2022/11/27 00:27:02;;;;;;;11.53;3.47;;;;;;;;;;5055507;28;20227;-80
2022/11/27 00:29:30;;;;;;;10.07;3.47;;;;;;;;;;5055778;28;20310;-79
2022/11/27 00:31:58;;;;;;;12.37;3.20;;;;;;;;;;5055553;28;20572;-80
2022/11/27 00:34:26;;;;;;;11.00;3.60;;;;;;;;;;5070182;28;20290;-80
2022/11/27 00:36:53;;;;;;;12.43;3.67;;;;;;;;;;5075076;28;20286;-79
2022/11/27 00:39:20;;;;;;;12.90;3.60;;;;;;;;;;5074381;28;20286;-79
2022/11/27 00:41:47;;;;;;;11.63;3.20;;;;;;;;;;5075436;28;20289;-79
2022/11/27 00:44:14;;;;;;;12.60;3.87;;;;;;;;;;5075026;28;20310;-79
2022/11/27 00:46:44;;;;;;;12.30;3.60;;;;;;;;;;5068353;28;20705;-79
2022/11/27 00:49:14;;;;;;;9.77;3.40;;;;;;;;;;5063738;28;20226;-79
2022/11/27 00:51:41;;;;;;;14.00;3.80;;;;;;;;;;5074581;28;20281;-79
2022/11/27 00:54:09;;;;;;;9.17;3.53;;;;;;;;;;5075131;28;20278;-79
2022/11/27 00:56:37;;;;;;;11.53;3.80;;;;;;;;;;5055830;28;20642;-79
2022/11/27 00:59:05;;;;;;;10.97;3.20;;;;;;;;;;5054847;28;20290;-80
2022/11/27 01:01:34;;;;;;;13.83;3.47;;;;;;;;;;5061130;28;20734;-80
2022/11/27 01:04:02;;;;;;;13.13;3.43;;;;;;;;;;5064584;28;20619;-79
2022/11/27 01:06:30;;;;;;;10.43;3.57;;;;;;;;;;5058886;28;20238;-79
2022/11/27 01:08:58;;;;;;;10.33;3.27;;;;;;;;;;5055481;28;20650;-80
2022/11/27 01:11:27;;;;;;;11.00;3.47;;;;;;;;;;5054516;28;20286;-79
2022/11/27 01:13:55;;;;;;;11.00;3.13;;;;;;;;;;5055092;28;20303;-79
2022/11/27 01:16:23;;;;;;;8.17;3.10;;;;;;;;;;5062291;28;20647;-80
2022/11/27 01:18:51;;;;;;;16.80;3.40;;;;;;;;;;5073807;28;20261;-79
2022/11/27 01:21:20;;;;;;;13.20;3.50;;;;;;;;;;5058501;28;20635;-79
2022/11/27 01:23:49;;;;;;;14.83;3.70;;;;;;;;;;5073915;28;20223;-79
2022/11/27 01:26:17;;;;;;;7.93;3.43;;;;;;;;;;5065403;28;20283;-79
2022/11/27 01:28:45;;;;;;;11.87;3.47;;;;;;;;;;5054279;28;21653;-79
2022/11/27 01:31:16;;;;;;;10.53;3.30;;;;;;;;;;5066274;28;20663;-80
2022/11/27 01:33:46;;;;;;;10.60;3.50;;;;;;;;;;5053807;28;20235;-79
2022/11/27 01:36:14;;;;;;;13.27;3.20;;;;;;;;;;5062814;28;20242;-80
2022/11/27 01:38:42;;;;;;;11.67;3.13;;;;;;;;;;5074232;28;20631;-79
2022/11/27 01:41:14;;;;;;;13.23;3.13;;;;;;;;;;5074631;28;20285;-79
2022/11/27 01:43:42;;;;;;;9.97;3.57;;;;;;;;;;5074185;28;20310;-79
2022/11/27 01:46:25;;;;;;;10.63;3.30;;;;;;;;;;5073538;28;20816;-79
2022/11/27 01:48:53;;;;;;;11.40;3.33;;;;;;;;;;5074062;28;20282;-79
2022/11/27 01:51:21;;;;;;;10.60;3.20;;;;;;;;;;5073726;28;20233;-79
2022/11/27 01:53:49;;;;;;;8.67;3.30;;;;;;;;;;5073988;28;20230;-80
2022/11/27 01:56:20;;;;;;;10.87;3.47;;;;;;;;;;5071059;28;20285;-80
2022/11/27 01:58:48;;;;;;;11.13;3.17;;;;;;;;;;5073669;28;20235;-79
2022/11/27 02:01:16;;;;;;;9.57;3.20;;;;;;;;;;5072993;28;20290;-79
2022/11/27 02:03:43;;;;;;;10.53;3.30;;;;;;;;;;5073718;28;20239;-80
2022/11/27 02:06:13;;;;;;;9.57;3.10;;;;;;;;;;5073756;28;20280;-80
2022/11/27 02:08:41;;;;;;;12.37;3.77;;;;;;;;;;5073908;28;20302;-79
2022/11/27 02:11:13;;;;;;;13.13;3.73;;;;;;;;;;5063322;28;20283;-79
2022/11/27 02:13:46;;;;;;;9.23;3.63;;;;;;;;;;5072519;28;20195;-79
2022/11/27 02:16:18;;;;;;;9.57;3.13;;;;;;;;;;5073407;28;20202;-79
2022/11/27 02:18:49;;;;;;;10.33;3.20;;;;;;;;;;5072596;28;20207;-79
2022/11/27 02:21:20;;;;;;;9.23;3.30;;;;;;;;;;5072903;28;20302;-79
2022/11/27 02:24:13;;;;;;;8.30;3.30;;;;;;;;;;5072546;28;20737;-79
2022/11/27 02:26:58;;;;;;;9.47;3.10;;;;;;;;;;5073381;28;20203;-79
2022/11/27 02:29:29;;;;;;;9.93;3.30;;;;;;;;;;5063430;28;20723;-79
2022/11/27 02:31:58;;;;;;;8.13;3.13;;;;;;;;;;5053718;28;20278;-79
2022/11/27 02:34:28;;;;;;;8.73;3.13;;;;;;;;;;5052643;28;20287;-79
2022/11/27 02:36:57;;;;;;;11.20;3.67;;;;;;;;;;5053610;28;20290;-79
2022/11/27 02:39:26;;;;;;;7.37;3.17;;;;;;;;;;5061858;28;20332;-79
2022/11/27 02:41:55;;;;;;;7.93;3.27;;;;;;;;;;5073213;28;20241;-79
2022/11/27 02:44:23;;;;;;;5.67;3.17;;;;;;;;;;5056003;28;20302;-79
2022/11/27 02:46:53;;;;;;;8.50;3.20;;;;;;;;;;5052294;28;20287;-80
2022/11/27 02:49:20;;;;;;;9.83;3.43;;;;;;;;;;5052993;28;20639;-80
2022/11/27 02:51:50;;;;;;;8.93;3.13;;;;;;;;;;5053271;28;20292;-80
2022/11/27 02:54:20;;;;;;;8.87;3.47;;;;;;;;;;5057563;28;20219;-80
2022/11/27 02:56:51;;;;;;;7.00;3.10;;;;;;;;;;5070959;28;20295;-79
2022/11/27 02:59:20;;;;;;;7.90;3.53;;;;;;;;;;5062097;28;20200;-79
2022/11/27 03:01:52;;;;;;;8.23;3.70;;;;;;;;;;5072896;28;20341;-79
2022/11/27 03:04:22;;;;;;;7.13;3.33;;;;;;;;;;5072664;28;20725;-79
2022/11/27 03:06:51;;;;;;;9.57;3.57;;;;;;;;;;5052410;28;20255;-79
2022/11/27 03:09:21;;;;;;;7.97;3.30;;;;;;;;;;5053010;28;20235;-78
2022/11/27 03:11:50;;;;;;;7.20;3.60;;;;;;;;;;5059086;28;20199;-78
2022/11/27 03:14:23;;;;;;;6.83;2.83;;;;;;;;;;5072295;28;20191;-80
2022/11/27 03:16:58;;;;;;;5.80;3.37;;;;;;;;;;5061596;28;20203;-80
2022/11/27 03:19:30;;;;;;;8.30;3.30;;;;;;;;;;5058394;28;20306;-78
2022/11/27 03:21:59;;;;;;;6.53;3.17;;;;;;;;;;5072628;28;20285;-79
2022/11/27 03:24:26;;;;;;;6.00;3.40;;;;;;;;;;5068057;28;20306;-79
2022/11/27 03:26:53;;;;;;;7.53;3.30;;;;;;;;;;5052147;28;20716;-78
2022/11/27 03:29:22;;;;;;;6.33;2.93;;;;;;;;;;5058048;28;20251;-80
2022/11/27 03:31:49;;;;;;;6.20;3.03;;;;;;;;;;5072246;28;20288;-80
2022/11/27 03:34:17;;;;;;;6.60;3.50;;;;;;;;;;5057285;28;20188;-78
2022/11/27 03:36:46;;;;;;;6.17;3.33;;;;;;;;;;5052542;28;20726;-80
2022/11/27 03:39:13;;;;;;;6.40;3.53;;;;;;;;;;5052629;28;20235;-80
2022/11/27 03:41:43;;;;;;;5.53;3.30;;;;;;;;;;5052606;28;20626;-80
2022/11/27 03:44:14;;;;;;;6.00;3.20;;;;;;;;;;5055016;28;20338;-79
2022/11/27 03:46:46;;;;;;;6.27;3.47;;;;;;;;;;5071633;28;20299;-80
2022/11/27 03:49:18;;;;;;;5.57;3.43;;;;;;;;;;5071488;28;20231;-80
2022/11/27 03:51:50;;;;;;;6.00;3.33;;;;;;;;;;5072626;28;20253;-80
2022/11/27 03:54:21;;;;;;;6.40;3.77;;;;;;;;;;5071718;28;20195;-79
2022/11/27 03:56:52;;;;;;;5.20;3.60;;;;;;;;;;5052107;28;20703;-80
2022/11/27 03:59:23;;;;;;;6.17;3.63;;;;;;;;;;5055897;28;20659;-79
2022/11/27 04:01:52;;;;;;;6.43;3.50;;;;;;;;;;5055819;28;20287;-79
2022/11/27 04:04:19;;;;;;;5.03;3.33;;;;;;;;;;5056084;28;20265;-79
2022/11/27 04:06:48;;;;;;;5.73;3.77;;;;;;;;;;5068293;28;20321;-79
2022/11/27 04:09:15;;;;;;;5.20;4.00;;;;;;;;;;5067169;28;20956;-80
2022/11/27 04:11:42;;;;;;;8.70;4.27;;;;;;;;;;5065559;28;20624;-79
2022/11/27 04:14:09;;;;;;;8.53;4.60;;;;;;;;;;5072030;28;20220;-80
2022/11/27 04:16:36;;;;;;;7.50;4.37;;;;;;;;;;5055333;28;20242;-80
2022/11/27 04:19:04;;;;;;;7.97;4.40;;;;;;;;;;5055803;28;20770;-79
2022/11/27 04:21:31;;;;;;;8.30;4.40;;;;;;;;;;5072118;28;20286;-80
2022/11/27 04:24:00;;;;;;;8.93;4.37;;;;;;;;;;5075841;28;20249;-80
2022/11/27 04:26:27;;;;;;;8.40;4.97;;;;;;;;;;5074533;28;20286;-79
2022/11/27 04:28:54;;;;;;;10.30;4.67;;;;;;;;;;5075382;28;20219;-80
2022/11/27 04:31:22;;;;;;;7.50;4.63;;;;;;;;;;5071037;28;20220;-80
2022/11/27 04:33:49;;;;;;;7.30;4.87;;;;;;;;;;5055348;28;20552;-79
2022/11/27 04:36:16;;;;;;;9.57;4.80;;;;;;;;;;5055693;28;20231;-80
2022/11/27 04:38:43;;;;;;;8.70;4.80;;;;;;;;;;5055187;28;20281;-79
2022/11/27 04:41:12;;;;;;;6.80;4.80;;;;;;;;;;5055240;28;20250;-79
2022/11/27 04:43:39;;;;;;;7.93;4.57;;;;;;;;;;5054985;28;20288;-79
2022/11/27 04:46:06;;;;;;;9.37;4.90;;;;;;;;;;5055162;28;20314;-79
2022/11/27 04:48:34;;;;;;;9.13;4.80;;;;;;;;;;5055585;28;20238;-79
2022/11/27 04:51:01;;;;;;;8.27;4.50;;;;;;;;;;5055368;28;20196;-79
2022/11/27 04:53:28;;;;;;;8.23;4.70;;;;;;;;;;5062862;28;20287;-80
2022/11/27 04:55:58;;;;;;;10.17;5.30;;;;;;;;;;5074757;28;20294;-80
2022/11/27 04:58:27;;;;;;;7.50;5.00;;;;;;;;;;5074633;28;20320;-80
2022/11/27 05:00:54;;;;;;;11.90;5.03;;;;;;;;;;5074669;28;20621;-79
2022/11/27 05:03:21;;;;;;;9.63;5.17;;;;;;;;;;5074055;28;20290;-79
2022/11/27 05:05:55;;;;;;;7.70;5.07;;;;;;;;;;5054721;28;20315;-79
2022/11/27 05:08:22;;;;;;;10.50;5.20;;;;;;;;;;5069868;28;20238;-79
2022/11/27 05:10:58;;;;;;;8.23;5.27;;;;;;;;;;5050429;28;20283;-79
2022/11/27 05:13:27;;;;;;;9.77;5.13;;;;;;;;;;5034352;28;20708;-79
2022/11/27 05:15:54;;;;;;;8.43;5.20;;;;;;;;;;5060127;28;20282;-79
2022/11/27 05:18:21;;;;;;;10.60;5.03;;;;;;;;;;5069536;28;20252;-79
2022/11/27 05:20:48;;;;;;;8.67;5.13;;;;;;;;;;5073271;28;20650;-80
2022/11/27 05:23:15;;;;;;;9.63;5.40;;;;;;;;;;5073866;28;20286;-80
2022/11/27 05:25:43;;;;;;;10.13;5.63;;;;;;;;;;5072664;28;20715;-80
2022/11/27 05:28:10;;;;;;;10.10;5.60;;;;;;;;;;5053993;28;20917;-80
2022/11/27 05:30:39;;;;;;;10.47;5.90;;;;;;;;;;5054698;28;20662;-80
2022/11/27 05:33:06;;;;;;;10.53;5.60;;;;;;;;;;5054434;28;20242;-79
2022/11/27 05:35:33;;;;;;;7.57;5.67;;;;;;;;;;5070881;28;20195;-80
2022/11/27 05:38:01;;;;;;;10.13;5.73;;;;;;;;;;5072987;28;20285;-79
2022/11/27 05:40:31;;;;;;;12.70;5.80;;;;;;;;;;5054064;28;20742;-80
2022/11/27 05:42:58;;;;;;;11.53;6.00;;;;;;;;;;5070129;28;20199;-80
2022/11/27 05:45:25;;;;;;;10.60;5.73;;;;;;;;;;5074087;28;20314;-80
2022/11/27 05:47:54;;;;;;;10.63;5.47;;;;;;;;;;5073974;28;20230;-80
2022/11/27 05:50:21;;;;;;;12.30;5.70;;;;;;;;;;5060691;28;20238;-80
2022/11/27 05:52:49;;;;;;;10.90;5.90;;;;;;;;;;5067515;28;20289;-80
2022/11/27 05:55:16;;;;;;;10.53;5.60;;;;;;;;;;5073744;28;20293;-80
2022/11/27 05:57:43;;;;;;;12.13;6.30;;;;;;;;;;5037337;28;20282;-80
2022/11/27 06:00:11;;;;;;;12.27;6.50;;;;;;;;;;5054094;28;20278;-80
2022/11/27 06:02:38;;;;;;;9.93;6.10;;;;;;;;;;5053767;28;20232;-80
2022/11/27 06:05:08;;;;;;;9.80;5.43;;;;;;;;;;5064591;28;20302;-80
2022/11/27 06:07:35;;;;;;;14.93;6.77;;;;;;;;;;5073423;28;20243;-80
2022/11/27 06:10:02;;;;;;;12.60;6.30;;;;;;;;;;5072820;28;20743;-80
2022/11/27 06:12:33;;;;;;;14.23;6.20;;;;;;;;;;5073183;28;20211;-79
2022/11/27 06:15:00;;;;;;;11.77;6.43;;;;;;;;;;5072412;28;20281;-80
2022/11/27 06:17:28;;;;;;;9.73;6.10;;;;;;;;;;5073065;28;20657;-79
2022/11/27 06:19:55;;;;;;;14.03;6.50;;;;;;;;;;5073879;28;20232;-80
2022/11/27 06:22:23;;;;;;;10.87;6.40;;;;;;;;;;5054546;28;20238;-80
2022/11/27 06:24:51;;;;;;;10.67;6.27;;;;;;;;;;5052901;28;20310;-79
2022/11/27 06:27:18;;;;;;;13.23;6.40;;;;;;;;;;5053228;28;20286;-79
2022/11/27 06:29:46;;;;;;;13.37;6.17;;;;;;;;;;5053446;28;20255;-79
2022/11/27 06:32:13;;;;;;;10.93;5.70;;;;;;;;;;5053278;28;20286;-79
2022/11/27 06:34:40;;;;;;;12.90;6.43;;;;;;;;;;5054442;28;20668;-79
2022/11/27 06:37:07;;;;;;;15.00;6.33;;;;;;;;;;5073240;28;20231;-80
2022/11/27 06:39:36;;;;;;;11.80;6.40;;;;;;;;;;5072870;28;20289;-79
2022/11/27 06:42:03;;;;;;;11.17;6.43;;;;;;;;;;5072718;28;20235;-80
2022/11/27 06:44:30;;;;;;;10.17;6.50;;;;;;;;;;5072924;28;20285;-79
2022/11/27 06:46:58;;;;;;;11.00;6.47;;;;;;;;;;5073078;28;20245;-80
2022/11/27 06:49:25;;;;;;;12.70;6.40;;;;;;;;;;5073331;28;20281;-79
2022/11/27 06:51:52;;;;;;;10.47;6.50;;;;;;;;;;5072635;28;20260;-79
2022/11/27 06:54:19;;;;;;;14.73;6.40;;;;;;;;;;5057197;28;20227;-79
2022/11/27 06:56:49;;;;;;;13.00;6.47;;;;;;;;;;5072813;28;20705;-80
2022/11/27 06:59:16;;;;;;;12.47;6.67;;;;;;;;;;5072744;28;20287;-80
2022/11/27 07:01:44;;;;;;;15.73;6.70;;;;;;;;;;5056150;28;20234;-80
2022/11/27 07:04:12;;;;;;;16.07;6.77;;;;;;;;;;5070959;28;20765;-80
2022/11/27 07:06:39;;;;;;;20.27;7.10;;;;;;;;;;5071157;28;20266;-80
2022/11/27 07:09:07;;;;;;;12.30;7.00;;;;;;;;;;5072429;28;20242;-80
2022/11/27 07:11:34;;;;;;;16.83;7.30;;;;;;;;;;5071973;28;20230;-80
2022/11/27 07:14:04;;;;;;;13.30;7.00;;;;;;;;;;5072027;28;20235;-80
2022/11/27 07:16:32;;;;;;;12.83;6.93;;;;;;;;;;5071215;28;20269;-80
2022/11/27 07:19:02;;;;;;;12.60;6.83;;;;;;;;;;5059755;28;20231;-80
2022/11/27 07:21:29;;;;;;;16.77;7.87;;;;;;;;;;5060776;28;20241;-79
2022/11/27 07:23:57;;;;;;;17.93;7.87;;;;;;;;;;5072548;28;20297;-80
2022/11/27 07:26:25;;;;;;;12.87;7.83;;;;;;;;;;5072371;28;20223;-79
2022/11/27 07:28:52;;;;;;;16.40;7.80;;;;;;;;;;5072437;28;20255;-79
2022/11/27 07:31:21;;;;;;;14.57;7.30;;;;;;;;;;5072745;28;20248;-79
2022/11/27 07:33:51;;;;;;;15.07;7.43;;;;;;;;;;5052713;28;20735;-80
2022/11/27 07:36:19;;;;;;;19.53;7.47;;;;;;;;;;5058836;28;20709;-80
2022/11/27 07:38:47;;;;;;;14.83;7.60;;;;;;;;;;5071986;28;20237;-80
2022/11/27 07:41:14;;;;;;;20.67;7.87;;;;;;;;;;5071198;28;20742;-79
2022/11/27 07:43:42;;;;;;;14.93;7.80;;;;;;;;;;5072293;28;20282;-79
2022/11/27 07:46:11;;;;;;;24.33;7.77;;;;;;;;;;5059212;28;20259;-79
2022/11/27 07:48:40;;;;;;;13.73;7.70;;;;;;;;;;5052268;28;20203;-79
2022/11/27 07:51:08;;;;;;;17.93;8.00;;;;;;;;;;5052459;28;20199;-79
2022/11/27 07:53:36;;;;;;;16.63;8.60;;;;;;;;;;5066157;28;20227;-79
2022/11/27 07:56:04;;;;;;;13.37;7.90;;;;;;;;;;5066915;28;20281;-80
2022/11/27 07:58:31;;;;;;;18.60;8.40;;;;;;;;;;5071334;28;20231;-80
2022/11/27 08:00:59;;;;;;;16.23;8.37;;;;;;;;;;5070957;28;20238;-80
2022/11/27 08:03:26;;;;;;;14.13;7.40;;;;;;;;;;5052353;28;20287;-79
2022/11/27 08:05:55;;;;;;;13.53;8.17;;;;;;;;;;5051523;28;20738;-79
2022/11/27 08:08:22;;;;;;;16.73;8.37;;;;;;;;;;5064636;28;20234;-79
2022/11/27 08:10:49;;;;;;;15.63;8.23;;;;;;;;;;5071811;28;20285;-81
2022/11/27 08:13:16;;;;;;;19.90;8.87;;;;;;;;;;5071643;28;20231;-84
2022/11/27 08:15:44;;;;;;;17.93;8.43;;;;;;;;;;5057207;28;20672;-80
2022/11/27 08:18:12;;;;;;;18.00;8.90;;;;;;;;;;5051889;28;20249;-79
2022/11/27 08:20:39;;;;;;;21.23;8.57;;;;;;;;;;5052071;28;20287;-80
2022/11/27 08:23:11;;;;;;;20.10;9.17;;;;;;;;;;5051256;28;20687;-79
2022/11/27 08:25:38;;;;;;;16.97;9.30;;;;;;;;;;5058397;28;20219;-79
2022/11/27 08:28:05;;;;;;;18.90;9.17;;;;;;;;;;5058038;28;20287;-79
2022/11/27 08:30:32;;;;;;;16.67;8.70;;;;;;;;;;5068746;28;20226;-79
2022/11/27 08:33:00;;;;;;;14.10;8.57;;;;;;;;;;5070171;28;20226;-79
2022/11/27 08:35:28;;;;;;;14.77;9.30;;;;;;;;;;5052622;28;20694;-79
2022/11/27 08:37:55;;;;;;;15.93;8.43;;;;;;;;;;5061483;28;20227;-79
2022/11/27 08:40:24;;;;;;;15.87;9.27;;;;;;;;;;5071768;28;20238;-79
2022/11/27 08:42:51;;;;;;;18.67;10.03;;;;;;;;;;5032032;28;20283;-80
2022/11/27 08:45:18;;;;;;;16.70;10.00;;;;;;;;;;5047370;28;20269;-83
2022/11/27 08:47:45;;;;;;;16.63;9.53;;;;;;;;;;5063538;28;20226;-83
2022/11/27 08:50:12;;;;;;;20.37;10.17;;;;;;;;;;5068044;28;20273;-82
2022/11/27 08:52:40;;;;;;;16.93;9.63;;;;;;;;;;5075511;28;20238;-84
2022/11/27 08:55:08;;;;;;;19.70;10.00;;;;;;;;;;5074676;28;20211;-84
2022/11/27 08:57:36;;;;;;;13.83;8.63;;;;;;;;;;5074825;28;20234;-82
2022/11/27 09:00:04;;;;;;;15.37;8.63;;;;;;;;;;5073932;28;20615;-83
2022/11/27 09:02:31;;;;;;;16.47;9.10;;;;;;;;;;5064676;28;20242;-83
2022/11/27 09:04:58;;;;;;;15.37;8.70;;;;;;;;;;5054718;28;20286;-83
2022/11/27 09:07:26;;;;;;;15.87;9.00;;;;;;;;;;5057205;28;20322;-82
2022/11/27 09:09:53;;;;;;;16.57;8.20;;;;;;;;;;5074479;28;20627;-83
2022/11/27 09:12:20;;;;;;;12.80;8.00;;;;;;;;;;5074777;28;20282;-82
2022/11/27 09:14:49;;;;;;;18.47;8.93;;;;;;;;;;5074589;28;20241;-82
2022/11/27 09:17:17;;;;;;;14.10;8.10;;;;;;;;;;5074163;28;20191;-81
2022/11/27 09:19:44;;;;;;;12.50;8.70;;;;;;;;;;5066676;28;20238;-81
2022/11/27 09:22:11;;;;;;;13.13;8.27;;;;;;;;;;5062885;28;20295;-83
2022/11/27 09:24:39;;;;;;;12.23;7.40;;;;;;;;;;5061822;28;20672;-82
2022/11/27 09:27:06;;;;;;;13.20;7.77;;;;;;;;;;5072772;28;20330;-83
2022/11/27 09:29:34;;;;;;;12.60;7.50;;;;;;;;;;5063881;28;20243;-83
2022/11/27 09:32:03;;;;;;;11.60;7.23;;;;;;;;;;5060644;28;20223;-83
2022/11/27 09:34:30;;;;;;;9.83;6.57;;;;;;;;;;5072071;28;20199;-79
2022/11/27 09:36:57;;;;;;;13.53;8.17;;;;;;;;;;5065147;28;20227;-81
2022/11/27 09:39:29;;;;;;;12.07;6.60;;;;;;;;;;5061283;28;20201;-78
2022/11/27 09:41:58;;;;;;;10.57;7.30;;;;;;;;;;5070662;28;20210;-78
2022/11/27 09:44:29;;;;;;;13.80;7.77;;;;;;;;;;5061300;28;20767;-79
2022/11/27 09:46:58;;;;;;;13.00;8.17;;;;;;;;;;5055717;28;20306;-79
2022/11/27 09:49:29;;;;;;;12.97;8.57;;;;;;;;;;5067417;28;20235;-78
2022/11/27 09:51:59;;;;;;;13.20;8.27;;;;;;;;;;5065211;28;20287;-79
2022/11/27 09:54:29;;;;;;;13.03;6.93;;;;;;;;;;5061954;28;20275;-79
2022/11/27 09:56:56;;;;;;;10.53;7.73;;;;;;;;;;5055974;28;20229;-79
2022/11/27 09:59:25;;;;;;;8.77;7.23;;;;;;;;;;5062018;28;20204;-83
2022/11/27 10:01:53;;;;;;;11.43;7.10;;;;;;;;;;5061720;28;20231;-82
2022/11/27 10:04:21;;;;;;;12.00;7.20;;;;;;;;;;5067250;28;20288;-80
2022/11/27 10:06:57;;;;;;;12.50;7.43;;;;;;;;;;5062454;28;20223;-84
2022/11/27 10:09:30;;;;;;;12.17;7.87;;;;;;;;;;5056643;28;20226;-80
2022/11/27 10:12:01;;;;;;;11.73;7.40;;;;;;;;;;5057730;28;20274;-80
2022/11/27 10:14:35;;;;;;;11.23;6.67;;;;;;;;;;5060249;28;20664;-76
2022/11/27 10:17:06;;;;;;;8.47;7.00;;;;;;;;;;5061039;28;20226;-77
2022/11/27 10:19:37;;;;;;;12.00;6.80;;;;;;;;;;5051170;28;20235;-76
2022/11/27 10:22:11;;;;;;;11.83;6.97;;;;;;;;;;5047240;28;20278;-76
2022/11/27 10:24:42;;;;;;;11.23;6.50;;;;;;;;;;5056200;28;20227;-76
2022/11/27 10:27:15;;;;;;;8.97;6.20;;;;;;;;;;5054500;28;20258;-77
2022/11/27 10:29:44;;;;;;;9.10;6.73;;;;;;;;;;5053625;28;20224;-80
2022/11/27 10:32:13;;;;;;;9.40;6.20;;;;;;;;;;5056366;28;20242;-78
2022/11/27 10:34:42;;;;;;;8.83;5.77;;;;;;;;;;5067995;28;20291;-80
2022/11/27 10:37:16;;;;;;;9.67;6.30;;;;;;;;;;5052904;28;20234;-79
2022/11/27 10:39:46;;;;;;;10.90;6.67;;;;;;;;;;5051906;28;20730;-78
2022/11/27 10:42:16;;;;;;;9.97;6.40;;;;;;;;;;5064303;28;20221;-77
2022/11/27 10:44:47;;;;;;;9.17;6.37;;;;;;;;;;5059390;28;20226;-79
2022/11/27 10:47:14;;;;;;;7.57;6.10;;;;;;;;;;5064866;28;20248;-81
2022/11/27 10:49:42;;;;;;;10.70;6.90;;;;;;;;;;5053107;28;20200;-81
2022/11/27 10:52:12;;;;;;;11.27;6.43;;;;;;;;;;5054866;28;20279;-81
2022/11/27 10:54:41;;;;;;;9.77;6.73;;;;;;;;;;5061881;28;20239;-81
2022/11/27 10:57:19;;;;;;;9.23;6.40;;;;;;;;;;5052172;28;20192;-81
2022/11/27 10:59:49;;;;;;;10.07;7.10;;;;;;;;;;5066646;28;20238;-85
2022/11/27 11:02:27;;;;;;;11.37;7.63;;;;;;;;;;5053626;28;20214;-82
2022/11/27 11:04:55;;;;;;;7.90;6.30;;;;;;;;;;5052401;28;20238;-83
2022/11/27 11:07:25;;;;;;;7.93;5.63;;;;;;;;;;5052298;28;20231;-81
2022/11/27 11:09:54;;;;;;;9.10;6.37;;;;;;;;;;5049814;28;20227;-82
2022/11/27 11:12:22;;;;;;;9.10;6.50;;;;;;;;;;5053744;28;20637;-82
2022/11/27 11:14:53;;;;;;;10.43;5.97;;;;;;;;;;5063389;28;20238;-82
2022/11/27 11:17:24;;;;;;;8.57;6.37;;;;;;;;;;5056462;28;20219;-81
2022/11/27 11:19:52;;;;;;;9.27;6.57;;;;;;;;;;5057091;28;20675;-80
2022/11/27 11:22:19;;;;;;;9.80;6.67;;;;;;;;;;5071261;28;20668;-79
2022/11/27 11:24:48;;;;;;;9.77;7.03;;;;;;;;;;5063602;28;20287;-79
2022/11/27 11:27:18;;;;;;;10.80;6.97;;;;;;;;;;5052779;28;20251;-79
2022/11/27 11:29:48;;;;;;;8.63;6.23;;;;;;;;;;5070812;28;20218;-80
2022/11/27 11:32:16;;;;;;;8.67;6.23;;;;;;;;;;5062049;28;20228;-79
2022/11/27 11:34:45;;;;;;;10.70;6.80;;;;;;;;;;5053909;28;20262;-80
2022/11/27 11:37:21;;;;;;;9.73;6.97;;;;;;;;;;5067036;28;20187;-79
2022/11/27 11:39:54;;;;;;;9.77;7.13;;;;;;;;;;5047280;28;20214;-79
2022/11/27 11:42:24;;;;;;;10.00;7.10;;;;;;;;;;5052077;28;20242;-79
2022/11/27 11:44:52;;;;;;;8.63;6.37;;;;;;;;;;5065100;28;20696;-80
2022/11/27 11:47:22;;;;;;;9.90;6.90;;;;;;;;;;5056572;28;20310;-80
2022/11/27 11:49:50;;;;;;;9.33;7.47;;;;;;;;;;5061050;28;20204;-79
2022/11/27 11:52:26;;;;;;;12.33;9.93;;;;;;;;;;5058837;28;20210;-79
2022/11/27 11:54:59;;;;;;;9.37;6.73;;;;;;;;;;5055816;28;20223;-79
2022/11/27 11:57:41;;;;;;;8.90;6.03;;;;;;;;;;5042620;28;20740;-80
2022/11/27 12:00:14;;;;;;;7.93;5.77;;;;;;;;;;5056769;28;20228;-81
2022/11/27 12:02:48;;;;;;;8.20;5.97;;;;;;;;;;5057300;28;20302;-81
2022/11/27 12:05:28;;;;;;;9.27;6.00;;;;;;;;;;5066673;28;20236;-79
2022/11/27 12:08:02;;;;;;;10.27;7.03;;;;;;;;;;5043693;28;20606;-80
2022/11/27 12:10:32;;;;;;;13.27;7.57;;;;;;;;;;5061683;28;20190;-79
2022/11/27 12:13:05;;;;;;;10.17;6.37;;;;;;;;;;5068449;28;20286;-80
2022/11/27 12:15:35;;;;;;;8.87;6.43;;;;;;;;;;5061576;28;20210;-81
2022/11/27 12:18:06;;;;;;;1854.97;242.97;;;;;;;;;;5053655;28;20196;-82
2022/11/27 12:20:51;;;;;;;310.27;29.40;;;;;;;;;;5058661;28;20249;-81
2022/11/27 12:23:39;;;;;;;23.47;9.20;;;;;;;;;;5055183;28;20741;-79
2022/11/27 12:26:10;;;;;;;41.50;9.60;;;;;;;;;;5055540;28;20235;-82
2022/11/27 12:28:48;;;;;;;52.97;15.63;;;;;;;;;;5068952;28;20238;-80
2022/11/27 12:31:23;;;;;;;55.57;12.90;;;;;;;;;;5055320;28;20287;-81
2022/11/27 12:33:56;;;;;;;165.33;17.33;;;;;;;;;;5065022;28;20193;-80
2022/11/27 12:36:27;;;;;;;700.00;44.87;;;;;;;;;;5067210;28;20200;-79
2022/11/27 12:39:04;;;;;;;36.83;12.10;;;;;;;;;;5064696;28;20200;-80
2022/11/27 12:41:38;;;;;;;21.50;15.70;;;;;;;;;;5060262;28;20305;-80
2022/11/27 12:44:15;;;;;;;13.13;7.40;;;;;;;;;;5062721;28;20206;-79
2022/11/27 12:46:49;;;;;;;10.67;7.23;;;;;;;;;;5062990;28;20250;-79
2022/11/27 12:49:21;;;;;;;9.47;6.90;;;;;;;;;;5047189;28;20241;-78
2022/11/27 12:51:49;;;;;;;14.07;7.60;;;;;;;;;;5048389;28;20258;-78
2022/11/27 12:54:18;;;;;;;11.83;7.77;;;;;;;;;;5065899;28;20246;-79
2022/11/27 12:56:47;;;;;;;11.17;6.73;;;;;;;;;;5060656;28;20264;-79
2022/11/27 12:59:19;;;;;;;11.60;7.23;;;;;;;;;;5072242;28;20203;-82
2022/11/27 13:01:48;;;;;;;10.53;8.03;;;;;;;;;;5070672;28;20231;-81
2022/11/27 13:04:20;;;;;;;13.33;7.73;;;;;;;;;;5059598;28;20269;-81
2022/11/27 13:06:51;;;;;;;10.50;7.60;;;;;;;;;;5071619;28;20289;-82
2022/11/27 13:09:20;;;;;;;11.67;8.53;;;;;;;;;;5068560;28;20718;-81
2022/11/27 13:11:48;;;;;;;10.60;8.03;;;;;;;;;;5061389;28;20202;-81
2022/11/27 13:14:19;;;;;;;11.30;8.97;;;;;;;;;;5072494;28;20314;-81
2022/11/27 13:16:49;;;;;;;12.43;8.53;;;;;;;;;;5057139;28;20288;-82
2022/11/27 13:19:20;;;;;;;12.27;8.50;;;;;;;;;;5057824;28;20291;-81
2022/11/27 13:21:48;;;;;;;11.90;8.77;;;;;;;;;;5062111;28;20233;-81
2022/11/27 13:24:16;;;;;;;12.37;9.23;;;;;;;;;;5055725;28;20282;-80
2022/11/27 13:26:45;;;;;;;11.37;8.33;;;;;;;;;;5062726;28;20239;-81
2022/11/27 13:29:20;;;;;;;10.13;8.10;;;;;;;;;;5056617;28;20258;-80
2022/11/27 13:31:48;;;;;;;12.33;8.33;;;;;;;;;;5062422;28;20285;-81
2022/11/27 13:34:19;;;;;;;11.83;8.83;;;;;;;;;;5054063;28;20644;-80
2022/11/27 13:36:49;;;;;;;12.17;8.50;;;;;;;;;;5054120;28;20232;-81
2022/11/27 13:39:23;;;;;;;12.03;8.60;;;;;;;;;;5060589;28;20199;-81
2022/11/27 13:41:59;;;;;;;11.50;8.33;;;;;;;;;;5056193;28;20290;-81
2022/11/27 13:44:29;;;;;;;12.47;9.57;;;;;;;;;;5053724;28;20238;-81
2022/11/27 13:46:58;;;;;;;13.30;9.87;;;;;;;;;;5048803;28;20220;-81
2022/11/27 13:49:28;;;;;;;10.53;8.97;;;;;;;;;;5066792;28;20238;-80
2022/11/27 13:52:04;;;;;;;14.70;9.30;;;;;;;;;;5058912;28;20611;-81
2022/11/27 13:54:31;;;;;;;13.50;9.20;;;;;;;;;;5065512;28;20200;-81
2022/11/27 13:57:09;;;;;;;14.20;9.87;;;;;;;;;;5066248;28;20613;-81
2022/11/27 13:59:37;;;;;;;11.80;9.10;;;;;;;;;;5062023;28;20230;-81
2022/11/27 14:02:06;;;;;;;11.80;9.13;;;;;;;;;;5067096;28;20286;-82
2022/11/27 14:04:36;;;;;;;13.13;9.17;;;;;;;;;;5065896;28;20286;-81
2022/11/27 14:07:06;;;;;;;15.07;9.10;;;;;;;;;;5056313;28;20232;-81
2022/11/27 14:09:35;;;;;;;13.83;9.10;;;;;;;;;;5055299;28;20302;-81
2022/11/27 14:12:03;;;;;;;12.13;9.27;;;;;;;;;;5073005;28;20241;-81
2022/11/27 14:14:30;;;;;;;12.03;8.87;;;;;;;;;;5055522;28;20239;-81
2022/11/27 14:17:01;;;;;;;15.47;10.53;;;;;;;;;;5061529;28;20277;-81
2022/11/27 14:19:32;;;;;;;18.33;10.07;;;;;;;;;;5062864;28;20683;-80
2022/11/27 14:21:59;;;;;;;14.07;9.80;;;;;;;;;;5059017;28;20294;-80
2022/11/27 14:24:28;;;;;;;13.07;8.83;;;;;;;;;;5053358;28;20238;-80
2022/11/27 14:26:56;;;;;;;13.40;9.30;;;;;;;;;;5064624;28;20230;-80
2022/11/27 14:29:24;;;;;;;12.67;9.07;;;;;;;;;;5068490;28;20305;-80
2022/11/27 14:32:00;;;;;;;14.70;8.50;;;;;;;;;;5053194;28;20208;-80
2022/11/27 14:34:29;;;;;;;13.03;8.43;;;;;;;;;;5060336;28;20260;-80
2022/11/27 14:36:56;;;;;;;12.10;8.00;;;;;;;;;;5066645;28;20199;-80
2022/11/27 14:39:25;;;;;;;12.03;7.57;;;;;;;;;;5056143;28;20258;-80
2022/11/27 14:41:59;;;;;;;12.80;7.87;;;;;;;;;;5060528;28;20203;-80
2022/11/27 14:44:26;;;;;;;11.87;8.00;;;;;;;;;;5060406;28;20291;-81
2022/11/27 14:46:53;;;;;;;13.80;7.77;;;;;;;;;;5061810;28;20299;-81